Airfield :
LOGIN :

Register | Disclaimer

   EN    FR    IT 

 










Legend :    VFR   Marginal VFR   IFR   Intensive IFR   Very Intensive IFR
Visi :
Ceiling :
>= 8 km
>= 3000ft
5 to 8 km
1000 to 3000 ft
1500m to 5 km
500 to 1000 ft
800 to 1500m
200 to 500 ft
< 800m
< 200 ft
Symbols :   Thunderstorms  Fog  Heavy snow  Heavy precipitations  Wind > 20 kt
SIGMETs :     Misc.  Thunderstorms  Icing  Turbulence  Mountain Waves  Volcanic Ashes






- Airport Elevation : 26 ft
- IATA code : BIA


LFKB - Bastia

CURRENT METAR :
  • 270200Z AUTO 21004KT 9999 FEW013 SCT072 09/08 Q1020 TEMPO 4000 RA BR

EXPIRED METARs :
  • 270130Z AUTO VRB02KT 9999 FEW016/// ///TCU 09/07 Q1020 TEMPO 4000 RA BR BECMG SCT015 BKN020
  • 270100Z AUTO 21006KT 9999 FEW014 10/08 Q1020 TEMPO 4000 RA BR
  • 270030Z AUTO 21005KT 9999 FEW014 10/09 Q1021 TEMPO 4000 RA BR
  • 270000Z AUTO 21005KT 9999 FEW013 09/08 Q1021 TEMPO 4000 RA BR
  • 262330Z AUTO 22005KT 9999 FEW012 10/09 Q1021 TEMPO 4000 RA BR BECMG 16010KT

TAF TAF LFKB
Valid from the 26 at 21:00 until the 27 at 21:00 UTC


262000Z 2621/2721 16010KT 9999 SCT015 BKN020 TX17/2712Z TN08/2704Z
TEMPO 2700/2711 4000 RA BR
BECMG 2711/2712 SHRA SCT020TCU
TEMPO 2712/2721 3000 SHRA BR
ATIS : +33 4 95 59 19 40



MET'MAP, your aeronautical weather chart ! - Copyright ORBIFLY December 2007 - Disclaimer

ORBIFLY MET'MAP TEAM :

Programming & Development : Alexandra Zaïnal
Concept & original design : Baudouin d'Aumeries
Assistance for programming : Marc-Olivier Méhu
Technical & hardware support : Manuel Goepfert

Contact : metmap@orbifly.com




SOURCES & CREDITS :

   NOAA